Hub


Voltar

 INFORMAÇÕES METEOROLÓGICAS

METAR FOR GCHI


ADDS - METARS form results

(1252 UTC 26 April 2019)
Data provider http://aviationweather.gov/metar/data/
 
METAR text: GCHI 261230Z 04017KT 010V070 9999 FEW020 BKN044 20/15 Q1022
Conditions at: GCHI (HIERRO AIRPORT , ES) observed 1230 UTC 26 April 2019
Temperature: 20.0°C (68°F)
Dewpoint: 15.0°C (59°F) [RH = 73%]
Pressure (altimeter): 30.18 inches Hg (1022.0 mb)
Winds: from the NE (40 degrees) at 20 MPH (17 knots; 8.7 m/s)
Visibility: 6 or more miles (10+ km)
Ceiling: 4400 feet AGL
Clouds: few clouds at 2000 feet AGL
broken clouds at 4400 feet AGL
Weather: no significant weather observed at this time

METAR text: GCHI 261200Z 03019KT 9999 FEW020 BKN044 20/15 Q1023
Conditions at: GCHI (HIERRO AIRPORT , ES) observed 1200 UTC 26 April 2019
Temperature: 20.0°C (68°F)
Dewpoint: 15.0°C (59°F) [RH = 73%]
Pressure (altimeter): 30.21 inches Hg (1023.0 mb)
Winds: from the NNE (30 degrees) at 22 MPH (19 knots; 9.8 m/s)
Visibility: 6 or more miles (10+ km)
Ceiling: 4400 feet AGL
Clouds: few clouds at 2000 feet AGL
broken clouds at 4400 feet AGL
Weather: no significant weather observed at this time

Forecast for: GCHI (HIERRO AIRPORT , ES)
Text: TAF GCHI 260800Z 2609/2709 03018KT 9999 SCT030 TX22/2614Z TN18/2705Z
Forecast period: 0900 UTC 26 April 2019 to 0900 UTC 27 April 2019
Forecast type: FROM: standard forecast or significant change
Winds: from the NNE (30 degrees) at 21 MPH (18 knots; 9.3 m/s)
Visibility: 6 or more miles 10+ km)
Ceiling: at least 12,000 feet AGL
Clouds: scattered clouds at 3000 feet AGL
Weather: no significant weather forecast for this period
Text: PROB30
Forecast period: 1000 to 1300 UTC 26 April 2019
Forecast type: TEMPORARY: The following changes expected for less than half the time period
Winds: from the NNE (30 degrees) at 21 MPH (18 knots; 9.3 m/s)
gusting to 32 MPH (28 knots; 14.4 m/s)
Visibility: missing
Ceiling: unknown
Clouds: missing
Weather: no significant weather forecast for this period


 MAPA DO AEROPORTO


 INFORMAÇÕES DA PISTA

Pista 16 Tamanho da pista 4101 ft Largura da pista 98 ft
Elevação da pista 71 ft Ranhura da pista 0 ft Proa da pista 153
Pista 34 Tamanho da pista 4101 ft Largura da pista 98 ft
Elevação da pista 103 ft Ranhura da pista 0 ft Proa da pista 333

 FREQUÊNCIAS DO AEROPORTO

Tipo A/D Nome CANARIAS A Frequência 126.1 MHZ
Tipo GND Nome GND Frequência 121.6 MHZ
Tipo TWR Nome TWR Frequência 118.1 MHZ

 AUXÍLIOS DE NAVEGAÇÃO PRÓXIMOS AO AEROPORTO

Tipo NDB Nome Hierro Frequência 376 KHZ
Tipo DME Nome Hierro Frequência 113200 KHZ